الصفحة الرئيسية
METAR-TAF:

METAR-TAF

مطار :

قاعدة رمادة الجوية

رمادة, تونس

دائرة عرض: 32-19N, خط طول: 010-24E, ارتفاع: 300 متر

مراقبة الطقس الحالي

تاريخ ووقت الإصدار 31 دقيقة قبل الساعة 04:00UTC
ريح 2 عقدةمن اتجاهات متغيرة
درجة الحرارة 16°درجة مئوية
الرطوبة 77%
ضغط 1019 hPa

METAR: DTTD 290400Z AUTO VRB02KT NCD 16/12 Q1019

زمن: 05:31 (04:31 UTC)


TAF: مفقودة

أرصاد الطقس والتوقعات من أكثر من 4000 مطار (تقارير الطقس للمطار METAR والتنبؤ بالطقس بالمطارTAF).

المحطات المتاحة هي النقط الصفراء والحمراء على الخريطة.

حرك المؤشر فوق النقطة لمعرفة اسم المحطة.

ثم انقر لمعرفة أرصاد وتوقعات الطقس.

لتغيير الخارطة: اضغط على الأزرار الخضراء مع رمز الصليب الأسود للتكبير. على الزر الأخضر مع شرطة للتصغير، أو على الأسهم الخضراء للخرائط المجاورة.


METAR-TAF: